createdAt,value
2023-01-26T00:02:03.698Z,101220.95
2023-01-26T00:04:31.639Z,101218.19
2023-01-26T00:06:59.622Z,101222.23
2023-01-26T00:09:27.660Z,101220.00
2023-01-26T00:11:55.533Z,101219.48
2023-01-26T00:14:23.565Z,101217.09
2023-01-26T00:16:51.579Z,101206.13
2023-01-26T00:19:19.764Z,101208.70
2023-01-26T00:21:47.631Z,101211.18
2023-01-26T00:24:15.845Z,101208.12
2023-01-26T00:26:43.794Z,101205.45
2023-01-26T00:29:11.696Z,101206.83
2023-01-26T00:31:39.642Z,101202.94
2023-01-26T00:34:07.594Z,101206.73
2023-01-26T00:36:37.690Z,101207.41
2023-01-26T00:39:05.779Z,101206.15
2023-01-26T00:41:54.360Z,101208.80
2023-01-26T00:44:22.363Z,101210.20
2023-01-26T00:46:50.397Z,101203.05
2023-01-26T00:49:18.608Z,101198.92
2023-01-26T00:51:46.857Z,101197.23
2023-01-26T00:54:15.323Z,101196.45
2023-01-26T00:56:43.351Z,101193.19
2023-01-26T00:59:11.681Z,101191.80
2023-01-26T01:01:39.806Z,101197.13
2023-01-26T01:04:07.804Z,101197.25
2023-01-26T01:06:35.976Z,101193.02
2023-01-26T01:09:04.020Z,101196.12
2023-01-26T01:11:32.585Z,101194.17
2023-01-26T01:14:00.460Z,101193.89
2023-01-26T01:16:28.769Z,101190.87
2023-01-26T01:18:58.219Z,101196.20
2023-01-26T01:21:26.362Z,101191.77
2023-01-26T01:23:54.509Z,101188.60
2023-01-26T01:26:22.818Z,101184.15
2023-01-26T01:28:54.740Z,101178.91
2023-01-26T01:31:23.147Z,101178.48
2023-01-26T01:33:52.733Z,101173.71
2023-01-26T01:36:21.028Z,101164.27
2023-01-26T01:38:49.318Z,101161.23
2023-01-26T01:41:21.084Z,101150.65
2023-01-26T01:43:49.845Z,101144.79
2023-01-26T01:46:29.672Z,101145.66
2023-01-26T01:49:05.697Z,101143.01
2023-01-26T01:51:35.976Z,101141.61
2023-01-26T01:54:11.776Z,101137.00
2023-01-26T01:56:43.677Z,101129.01
2023-01-26T01:59:13.033Z,101128.56
2023-01-26T02:01:42.139Z,101126.42
2023-01-26T02:04:11.473Z,101124.98
2023-01-26T02:06:49.058Z,101121.48
2023-01-26T02:09:39.583Z,101119.05
2023-01-26T02:12:11.738Z,101114.18
2023-01-26T02:14:40.922Z,101110.71
2023-01-26T02:17:10.088Z,101110.17
2023-01-26T02:20:13.169Z,101106.50
2023-01-26T02:22:50.141Z,101108.17
2023-01-26T02:25:57.398Z,101108.16
2023-01-26T02:28:27.508Z,101105.09
2023-01-26T02:30:57.391Z,101096.99
2023-01-26T02:36:25.200Z,101090.27
2023-01-26T02:39:11.973Z,101085.96
2023-01-26T02:41:59.670Z,101083.60
2023-01-26T02:44:30.182Z,101084.52
2023-01-26T02:46:58.159Z,101081.14
2023-01-26T02:49:44.932Z,101077.90
2023-01-26T02:52:16.395Z,101076.36
2023-01-26T02:55:04.423Z,101078.59
2023-01-26T02:57:34.455Z,101075.80
2023-01-26T03:00:05.113Z,101071.64
2023-01-26T03:02:33.095Z,101066.11
2023-01-26T03:05:01.434Z,101060.91
2023-01-26T03:07:29.472Z,101054.99
2023-01-26T03:09:58.952Z,101053.36
2023-01-26T03:12:27.133Z,101053.56
2023-01-26T03:15:30.837Z,101049.95
2023-01-26T03:18:25.781Z,101046.60
2023-01-26T03:21:12.413Z,101043.36
2023-01-26T03:23:59.055Z,101039.44
2023-01-26T03:26:46.232Z,101037.30
2023-01-26T03:29:14.526Z,101037.66
2023-01-26T03:31:43.250Z,101029.72
2023-01-26T03:34:12.041Z,101023.45
2023-01-26T03:36:40.380Z,101027.91
2023-01-26T03:39:32.588Z,101027.79
2023-01-26T03:42:19.655Z,101024.49
2023-01-26T03:45:06.183Z,101022.83
2023-01-26T03:47:54.881Z,101020.79
2023-01-26T03:50:42.295Z,101021.65
2023-01-26T03:53:33.171Z,101014.98
2023-01-26T03:56:20.571Z,101005.75
2023-01-26T03:58:57.219Z,101003.52
2023-01-26T04:02:42.794Z,101000.35
2023-01-26T04:05:30.841Z,100996.17
2023-01-26T04:08:43.587Z,100996.09
2023-01-26T04:11:11.916Z,100996.55
2023-01-26T04:13:58.394Z,100991.73
2023-01-26T04:16:49.708Z,100984.15
2023-01-26T04:19:36.737Z,100985.79
2023-01-26T04:22:04.899Z,100992.00
2023-01-26T04:24:35.204Z,100995.13
2023-01-26T04:27:03.079Z,100997.14
2023-01-26T04:29:36.044Z,100998.31
2023-01-26T04:34:36.437Z,100994.93
2023-01-26T04:37:11.540Z,100997.52
2023-01-26T04:39:48.459Z,100999.64
2023-01-26T04:42:16.669Z,101001.13
2023-01-26T04:44:45.565Z,100995.02
2023-01-26T04:47:13.366Z,100998.27
2023-01-26T04:49:41.205Z,100999.04
2023-01-26T04:52:09.101Z,100996.69
2023-01-26T04:54:37.382Z,100996.16
2023-01-26T04:57:05.557Z,100993.35
2023-01-26T04:59:35.169Z,100984.64
2023-01-26T05:02:03.773Z,100986.92
2023-01-26T05:05:08.705Z,100985.11
2023-01-26T05:07:36.955Z,100987.17
2023-01-26T05:10:05.802Z,100984.27
2023-01-26T05:12:52.727Z,100980.91
2023-01-26T05:15:29.651Z,100979.14
2023-01-26T05:18:24.071Z,100978.05
2023-01-26T05:21:00.723Z,100979.75
2023-01-26T05:23:33.475Z,100975.12
2023-01-26T05:26:34.044Z,100974.81
2023-01-26T05:29:07.039Z,100973.86
2023-01-26T05:31:35.262Z,100971.72
2023-01-26T05:34:03.248Z,100967.32
2023-01-26T05:36:32.126Z,100963.98
2023-01-26T05:39:00.114Z,100966.03
2023-01-26T05:41:28.716Z,100973.23
2023-01-26T05:44:13.541Z,100971.70
2023-01-26T05:46:55.594Z,100968.69
2023-01-26T05:49:23.641Z,100964.83
2023-01-26T05:51:52.481Z,100962.59
2023-01-26T05:54:20.938Z,100963.98
2023-01-26T05:56:49.080Z,100967.41
2023-01-26T05:59:19.047Z,100968.23
2023-01-26T06:01:47.690Z,100967.48
2023-01-26T06:04:17.049Z,100974.02
2023-01-26T06:06:56.959Z,100973.15
2023-01-26T06:09:29.433Z,100976.69
2023-01-26T06:12:12.710Z,100976.89
2023-01-26T06:14:51.840Z,100977.98
2023-01-26T06:17:20.944Z,100980.52
2023-01-26T06:19:54.295Z,100985.01
2023-01-26T06:22:22.356Z,100977.85
2023-01-26T06:24:51.464Z,100977.78
2023-01-26T06:27:19.326Z,100977.20
2023-01-26T06:29:49.671Z,100978.97
2023-01-26T06:32:18.228Z,100977.76
2023-01-26T06:34:49.184Z,100974.89
2023-01-26T06:37:17.766Z,100975.23
2023-01-26T06:39:45.608Z,100977.65
2023-01-26T06:42:13.525Z,100976.27
2023-01-26T06:44:41.487Z,100972.98
2023-01-26T06:47:09.380Z,100967.44
2023-01-26T06:49:37.712Z,100966.62
2023-01-26T06:52:31.790Z,100964.37
2023-01-26T06:55:05.152Z,100966.64
2023-01-26T06:57:47.605Z,100971.39
2023-01-26T07:00:34.255Z,100966.14
2023-01-26T07:03:14.404Z,100963.21
2023-01-26T07:05:42.228Z,100964.98
2023-01-26T07:08:09.983Z,100963.87
2023-01-26T07:10:38.735Z,100962.33
2023-01-26T07:13:07.124Z,100964.36
2023-01-26T07:15:34.970Z,100962.95
2023-01-26T07:18:02.892Z,100966.21
2023-01-26T07:20:30.914Z,100964.78
2023-01-26T07:23:01.757Z,100967.92
2023-01-26T07:25:30.322Z,100966.80
2023-01-26T07:27:59.534Z,100966.88
2023-01-26T07:30:27.520Z,100964.97
2023-01-26T07:32:55.250Z,100962.19
2023-01-26T07:35:23.081Z,100958.48
2023-01-26T07:37:50.845Z,100954.77
2023-01-26T07:40:18.776Z,100955.55
2023-01-26T07:42:47.119Z,100952.55
2023-01-26T07:45:44.880Z,100945.57
2023-01-26T07:48:12.838Z,100935.33
2023-01-26T07:50:40.978Z,100937.06
2023-01-26T07:53:09.479Z,100937.70
2023-01-26T07:55:37.251Z,100939.32
2023-01-26T07:58:05.075Z,100940.23
2023-01-26T08:00:32.899Z,100941.42
2023-01-26T08:03:01.062Z,100940.16
2023-01-26T08:05:29.366Z,100934.45
2023-01-26T08:07:59.081Z,100938.71
2023-01-26T08:10:31.643Z,100940.80
2023-01-26T08:13:00.732Z,100936.35
2023-01-26T08:15:29.208Z,100936.19
2023-01-26T08:17:56.966Z,100938.48
2023-01-26T08:20:24.719Z,100940.55
2023-01-26T08:22:53.703Z,100937.68
2023-01-26T08:25:21.575Z,100935.52
2023-01-26T08:27:49.664Z,100936.04
2023-01-26T08:30:17.852Z,100934.23
2023-01-26T08:32:45.622Z,100936.84
2023-01-26T08:35:13.558Z,100936.95
2023-01-26T08:37:41.476Z,100940.49
2023-01-26T08:40:10.845Z,100936.58
2023-01-26T08:42:38.918Z,100935.95
2023-01-26T08:45:07.243Z,100935.36
2023-01-26T08:47:35.252Z,100935.44
2023-01-26T08:50:03.854Z,100938.25
2023-01-26T08:52:31.891Z,100939.55
2023-01-26T08:55:00.926Z,100940.52
2023-01-26T08:57:28.766Z,100943.78
2023-01-26T08:59:56.599Z,100945.88
2023-01-26T09:02:24.551Z,100953.67
2023-01-26T09:04:52.706Z,100952.92
2023-01-26T09:07:20.828Z,100956.55
2023-01-26T09:09:53.263Z,100954.86
2023-01-26T09:12:24.927Z,100960.47
2023-01-26T09:14:56.613Z,100962.29
2023-01-26T09:17:27.501Z,100965.73
2023-01-26T09:19:58.859Z,100971.02
2023-01-26T09:22:30.821Z,100965.73
2023-01-26T09:25:02.275Z,100962.64
2023-01-26T09:27:38.508Z,100960.36
2023-01-26T09:30:12.061Z,100956.79
2023-01-26T09:32:43.461Z,100958.71
2023-01-26T09:35:15.257Z,100954.26
2023-01-26T09:37:46.314Z,100952.73
2023-01-26T09:40:26.430Z,100943.79
2023-01-26T09:43:21.196Z,100951.35
2023-01-26T09:46:19.903Z,100948.55
2023-01-26T09:49:07.347Z,100948.89
2023-01-26T09:51:42.484Z,100951.02
2023-01-26T09:54:29.470Z,100944.45
2023-01-26T09:57:10.523Z,100939.88
2023-01-26T09:59:59.932Z,100936.14
2023-01-26T10:03:03.925Z,100931.39
2023-01-26T10:05:56.824Z,100934.08
2023-01-26T10:08:44.164Z,100927.38
2023-01-26T10:11:24.744Z,100921.98
2023-01-26T10:13:57.765Z,100921.94
2023-01-26T10:16:26.292Z,100922.49
2023-01-26T10:19:02.687Z,100919.48
2023-01-26T10:21:36.776Z,100917.27
2023-01-26T10:24:05.976Z,100912.52
2023-01-26T10:26:34.113Z,100906.41
2023-01-26T10:29:03.469Z,100905.64
2023-01-26T10:31:33.490Z,100904.25
2023-01-26T10:34:11.786Z,100900.02
2023-01-26T10:36:41.819Z,100895.28
2023-01-26T10:39:14.614Z,100885.90
2023-01-26T10:41:57.054Z,100885.84
2023-01-26T10:44:45.174Z,100884.79
2023-01-26T10:47:17.343Z,100885.91
2023-01-26T10:49:45.870Z,100885.27
2023-01-26T10:52:28.356Z,100882.48
2023-01-26T10:55:19.946Z,100882.91
2023-01-26T10:57:48.123Z,100878.82
2023-01-26T11:04:38.014Z,100861.48
2023-01-26T11:07:40.195Z,100859.17
2023-01-26T11:10:38.476Z,100853.46
2023-01-26T11:13:12.320Z,100846.81
2023-01-26T11:15:47.960Z,100844.34
2023-01-26T11:18:53.960Z,100842.98
2023-01-26T11:21:36.042Z,100845.14
2023-01-26T11:24:09.227Z,100839.88
2023-01-26T11:26:52.321Z,100835.05
2023-01-26T11:29:35.162Z,100834.21
2023-01-26T11:32:24.779Z,100831.52
2023-01-26T11:34:55.439Z,100828.05
2023-01-26T11:37:36.504Z,100826.52
2023-01-26T11:40:30.586Z,100827.08
2023-01-26T11:43:42.915Z,100818.15
2023-01-26T11:46:40.489Z,100815.23
2023-01-26T11:49:46.152Z,100814.95
2023-01-26T11:52:23.113Z,100811.66
2023-01-26T11:55:18.827Z,100804.83
2023-01-26T11:57:59.095Z,100801.89
2023-01-26T12:00:40.232Z,100799.50
2023-01-26T12:03:27.986Z,100804.39
2023-01-26T12:06:00.453Z,100804.06
2023-01-26T12:08:39.545Z,100805.09
2023-01-26T12:11:33.844Z,100806.10
2023-01-26T12:14:08.487Z,100795.84
2023-01-26T12:16:39.359Z,100792.14
2023-01-26T12:19:41.942Z,100792.02
2023-01-26T12:22:13.704Z,100790.19
2023-01-26T12:25:28.937Z,100787.27
2023-01-26T12:27:58.363Z,100783.53
2023-01-26T12:30:31.082Z,100787.21
2023-01-26T12:32:59.588Z,100785.98
2023-01-26T12:35:37.988Z,100785.94
2023-01-26T12:38:18.620Z,100788.77
2023-01-26T12:41:19.168Z,100791.09
2023-01-26T12:44:32.142Z,100793.18
2023-01-26T12:47:12.826Z,100791.73
2023-01-26T12:49:50.576Z,100792.80
2023-01-26T12:52:31.855Z,100790.06
2023-01-26T12:55:18.482Z,100787.11
2023-01-26T12:57:55.273Z,100787.20
2023-01-26T13:00:30.772Z,100783.61
2023-01-26T13:03:17.079Z,100780.36
2023-01-26T13:06:14.214Z,100777.51
2023-01-26T13:08:54.397Z,100773.63
2023-01-26T13:11:44.091Z,100780.10
2023-01-26T13:14:33.550Z,100784.02
2023-01-26T13:17:16.839Z,100782.27
2023-01-26T13:19:44.776Z,100785.70
2023-01-26T13:22:18.764Z,100781.27
2023-01-26T13:24:56.173Z,100777.17
2023-01-26T13:27:41.012Z,100778.37
2023-01-26T13:30:24.526Z,100773.05
2023-01-26T13:32:54.228Z,100770.55
2023-01-26T13:35:26.769Z,100768.00
2023-01-26T13:38:29.549Z,100773.13
2023-01-26T13:40:59.089Z,100762.54
2023-01-26T13:43:29.992Z,100759.83
2023-01-26T13:46:19.916Z,100760.94
2023-01-26T13:48:52.606Z,100761.10
2023-01-26T13:51:24.989Z,100762.23
2023-01-26T13:54:13.577Z,100767.23
2023-01-26T13:57:07.260Z,100765.84
2023-01-26T13:59:48.846Z,100766.03
2023-01-26T14:02:49.742Z,100761.83
2023-01-26T14:05:22.332Z,100763.11
2023-01-26T14:07:50.215Z,100763.13
2023-01-26T14:10:20.198Z,100768.41
2023-01-26T14:12:56.627Z,100766.82
2023-01-26T14:15:30.842Z,100763.19
2023-01-26T14:18:04.620Z,100763.89
2023-01-26T14:20:39.592Z,100760.17
2023-01-26T14:23:07.327Z,100762.32
2023-01-26T14:25:35.309Z,100761.54
2023-01-26T14:28:04.025Z,100760.13
2023-01-26T14:30:34.325Z,100759.39
2023-01-26T14:33:16.521Z,100756.27
2023-01-26T14:35:54.857Z,100759.19
2023-01-26T14:38:22.780Z,100757.71
2023-01-26T14:40:53.760Z,100759.91
2023-01-26T14:43:22.086Z,100757.03
2023-01-26T14:46:33.104Z,100757.35
2023-01-26T14:49:08.137Z,100753.75
2023-01-26T14:51:37.913Z,100746.36
2023-01-26T14:54:26.465Z,100743.95
2023-01-26T14:56:54.494Z,100739.34
2023-01-26T14:59:41.312Z,100738.81
2023-01-26T15:02:22.780Z,100734.79
2023-01-26T15:05:03.594Z,100732.17
2023-01-26T15:08:05.362Z,100731.72
2023-01-26T15:10:53.397Z,100736.26
2023-01-26T15:13:29.953Z,100729.42
2023-01-26T15:16:11.930Z,100728.33
2023-01-26T15:18:39.742Z,100727.27
2023-01-26T15:21:39.908Z,100728.77
2023-01-26T15:24:15.032Z,100731.35
2023-01-26T15:26:44.217Z,100729.11
2023-01-26T15:29:30.685Z,100733.97
2023-01-26T15:31:59.327Z,100739.38
2023-01-26T15:34:32.437Z,100734.20
2023-01-26T15:37:01.627Z,100734.23
2023-01-26T15:39:30.254Z,100735.98
2023-01-26T15:42:22.272Z,100741.11
2023-01-26T15:44:50.468Z,100744.16
2023-01-26T15:47:18.225Z,100744.30
2023-01-26T15:49:46.376Z,100740.29
2023-01-26T15:52:41.987Z,100744.77
2023-01-26T15:55:26.641Z,100745.40
2023-01-26T15:57:54.682Z,100748.34
2023-01-26T16:00:23.675Z,100747.77
2023-01-26T16:02:51.567Z,100745.52
2023-01-26T16:05:23.177Z,100750.89
2023-01-26T16:07:52.575Z,100755.45
2023-01-26T16:10:20.827Z,100756.56
2023-01-26T16:12:50.390Z,100756.41
2023-01-26T16:15:27.523Z,100756.74
2023-01-26T16:17:55.391Z,100760.58
2023-01-26T16:20:23.204Z,100761.08
2023-01-26T16:22:51.040Z,100758.98
2023-01-26T16:25:29.337Z,100760.20
2023-01-26T16:27:58.581Z,100761.82
2023-01-26T16:30:26.919Z,100764.73
2023-01-26T16:32:54.844Z,100763.40
2023-01-26T16:35:24.221Z,100764.59
2023-01-26T16:37:52.247Z,100765.45
2023-01-26T16:40:20.186Z,100769.61
2023-01-26T16:42:51.233Z,100765.50
2023-01-26T16:45:22.918Z,100765.46
2023-01-26T16:47:54.885Z,100765.63
2023-01-26T16:50:24.062Z,100764.76
2023-01-26T16:52:52.516Z,100765.40
2023-01-26T16:55:20.536Z,100764.94
2023-01-26T16:57:49.950Z,100764.09
2023-01-26T17:00:20.407Z,100761.79
2023-01-26T17:02:51.515Z,100760.88
2023-01-26T17:05:22.245Z,100756.33
2023-01-26T17:07:51.074Z,100764.04
2023-01-26T17:10:22.580Z,100764.10
2023-01-26T17:12:50.655Z,100763.90
2023-01-26T17:15:18.649Z,100766.69
2023-01-26T17:17:49.311Z,100767.11
2023-01-26T17:20:19.640Z,100768.73
2023-01-26T17:22:48.782Z,100759.66
2023-01-26T17:25:18.275Z,100760.88
2023-01-26T17:27:48.213Z,100756.96
2023-01-26T17:30:17.726Z,100756.58
2023-01-26T17:32:45.753Z,100758.27
2023-01-26T17:35:14.097Z,100751.81
2023-01-26T17:37:42.145Z,100750.73
2023-01-26T17:40:11.058Z,100745.14
2023-01-26T17:42:39.159Z,100740.94
2023-01-26T17:45:09.941Z,100742.70
2023-01-26T17:47:38.805Z,100743.56
2023-01-26T17:50:07.146Z,100742.45
2023-01-26T17:52:42.081Z,100744.19
2023-01-26T17:55:13.000Z,100739.13
2023-01-26T17:57:41.086Z,100738.74
2023-01-26T18:00:12.101Z,100738.34
2023-01-26T18:02:39.908Z,100735.19
2023-01-26T18:05:08.923Z,100741.73
2023-01-26T18:07:36.854Z,100748.25
2023-01-26T18:10:05.153Z,100749.45
2023-01-26T18:12:33.298Z,100748.47
2023-01-26T18:15:01.551Z,100752.20
2023-01-26T18:17:29.323Z,100752.73
2023-01-26T18:19:57.071Z,100754.47
2023-01-26T18:22:24.901Z,100752.29
2023-01-26T18:24:52.774Z,100752.11
2023-01-26T18:27:20.629Z,100747.84
2023-01-26T18:29:48.515Z,100750.73
2023-01-26T18:32:16.424Z,100745.91
2023-01-26T18:34:44.385Z,100747.10
2023-01-26T18:37:13.143Z,100750.61
2023-01-26T18:39:40.967Z,100751.83
2023-01-26T18:42:08.793Z,100753.67
2023-01-26T18:44:37.430Z,100744.23
2023-01-26T18:47:05.358Z,100755.37
2023-01-26T18:49:33.103Z,100758.86
2023-01-26T18:52:10.225Z,100765.55
2023-01-26T18:54:44.658Z,100762.27
2023-01-26T18:57:13.101Z,100758.98
2023-01-26T18:59:40.856Z,100756.54
2023-01-26T19:04:37.419Z,100756.80
2023-01-26T19:07:05.461Z,100756.48
2023-01-26T19:09:35.110Z,100752.65
2023-01-26T19:12:04.439Z,100752.11
2023-01-26T19:14:33.000Z,100753.45
2023-01-26T19:17:01.301Z,100754.11
2023-01-26T19:19:31.102Z,100755.16
2023-01-26T19:21:59.011Z,100753.55
2023-01-26T19:24:26.896Z,100755.59
2023-01-26T19:26:54.871Z,100753.60
2023-01-26T19:29:22.659Z,100759.46
2023-01-26T19:31:50.744Z,100762.14
2023-01-26T19:34:18.626Z,100760.45
2023-01-26T19:36:46.980Z,100761.69
2023-01-26T19:39:14.985Z,100760.70
2023-01-26T19:41:44.180Z,100758.84
2023-01-26T19:44:12.012Z,100757.00
2023-01-26T19:46:39.942Z,100760.84
2023-01-26T19:49:11.689Z,100758.98
2023-01-26T19:51:39.652Z,100758.44
2023-01-26T19:54:08.620Z,100757.92
2023-01-26T19:56:37.328Z,100758.75
2023-01-26T19:59:07.998Z,100758.60
2023-01-26T20:01:36.497Z,100757.02
2023-01-26T20:04:07.646Z,100756.23
2023-01-26T20:06:36.959Z,100754.09
2023-01-26T20:09:06.585Z,100757.46
2023-01-26T20:11:34.895Z,100755.14
2023-01-26T20:14:06.173Z,100753.30
2023-01-26T20:16:34.491Z,100751.19
2023-01-26T20:19:03.742Z,100752.40
2023-01-26T20:21:32.370Z,100750.05
2023-01-26T20:24:05.571Z,100752.30
2023-01-26T20:26:34.908Z,100752.15
2023-01-26T20:29:04.070Z,100741.94
2023-01-26T20:31:33.199Z,100741.13
2023-01-26T20:34:02.102Z,100737.38
2023-01-26T20:36:31.616Z,100743.98
2023-01-26T20:39:00.207Z,100748.20
2023-01-26T20:41:30.072Z,100743.81
2023-01-26T20:44:01.858Z,100747.39
2023-01-26T20:46:40.615Z,100747.93
2023-01-26T20:49:12.694Z,100744.89
2023-01-26T20:51:42.628Z,100751.65
2023-01-26T20:54:16.912Z,100741.43
2023-01-26T20:56:49.172Z,100741.80
2023-01-26T20:59:18.932Z,100737.38
2023-01-26T21:01:46.888Z,100739.98
2023-01-26T21:04:14.705Z,100733.34
2023-01-26T21:06:42.540Z,100731.88
2023-01-26T21:09:12.760Z,100730.40
2023-01-26T21:11:40.950Z,100731.52
2023-01-26T21:14:12.204Z,100733.88
2023-01-26T21:16:40.825Z,100732.33
2023-01-26T21:19:08.745Z,100734.11
2023-01-26T21:21:36.615Z,100729.50
2023-01-26T21:24:04.701Z,100733.99
2023-01-26T21:26:32.907Z,100731.98
2023-01-26T21:29:01.090Z,100735.27
2023-01-26T21:31:31.724Z,100733.93
2023-01-26T21:34:00.910Z,100734.63
2023-01-26T21:36:31.036Z,100735.05
2023-01-26T21:39:00.412Z,100734.86
2023-01-26T21:41:51.908Z,100737.15
2023-01-26T21:44:27.929Z,100741.86
2023-01-26T21:46:59.315Z,100743.95
2023-01-26T21:49:30.815Z,100746.93
2023-01-26T21:52:17.038Z,100742.75
2023-01-26T21:54:44.962Z,100746.23
2023-01-26T21:57:31.560Z,100741.44
2023-01-26T21:59:59.462Z,100740.30
2023-01-26T22:02:27.306Z,100736.59
2023-01-26T22:04:55.376Z,100739.34
2023-01-26T22:07:23.184Z,100738.17
2023-01-26T22:09:50.955Z,100735.50
2023-01-26T22:12:18.958Z,100733.27
2023-01-26T22:14:46.850Z,100730.60
2023-01-26T22:17:14.608Z,100734.40
2023-01-26T22:19:42.412Z,100736.58
2023-01-26T22:22:10.231Z,100729.90
2023-01-26T22:24:38.742Z,100725.57
2023-01-26T22:27:08.328Z,100727.71
2023-01-26T22:29:36.278Z,100730.73
2023-01-26T22:32:04.472Z,100735.13
2023-01-26T22:34:32.584Z,100732.06
2023-01-26T22:37:00.434Z,100731.36
2023-01-26T22:39:28.259Z,100731.53
2023-01-26T22:41:56.069Z,100731.55
2023-01-26T22:44:23.955Z,100731.29
2023-01-26T22:46:52.632Z,100725.99
2023-01-26T22:49:20.446Z,100731.39
2023-01-26T22:51:48.252Z,100730.67
2023-01-26T22:54:16.064Z,100729.79
2023-01-26T22:56:44.056Z,100727.23
2023-01-26T22:59:12.040Z,100726.36
2023-01-26T23:01:39.863Z,100722.02
2023-01-26T23:04:08.619Z,100725.40
2023-01-26T23:06:36.583Z,100723.35
2023-01-26T23:09:04.815Z,100724.23
2023-01-26T23:11:32.831Z,100721.64
2023-01-26T23:14:00.904Z,100724.19
2023-01-26T23:16:29.322Z,100726.27
2023-01-26T23:18:58.918Z,100722.04
2023-01-26T23:21:27.991Z,100718.48
2023-01-26T23:23:56.059Z,100718.97
2023-01-26T23:26:24.825Z,100715.45
2023-01-26T23:28:52.584Z,100714.30
2023-01-26T23:31:20.971Z,100714.40
2023-01-26T23:33:49.874Z,100711.27
2023-01-26T23:36:17.764Z,100711.80
2023-01-26T23:38:45.998Z,100711.96
2023-01-26T23:41:13.913Z,100710.43
2023-01-26T23:43:41.730Z,100707.63
2023-01-26T23:46:10.524Z,100704.13
2023-01-26T23:48:39.340Z,100701.46
2023-01-26T23:51:10.778Z,100697.95
2023-01-26T23:53:39.144Z,100698.56
2023-01-26T23:56:10.833Z,100703.48
2023-01-26T23:58:39.065Z,100698.70
